首页
METAR-TAF:

METAR-TAF

机场 :

Yeovilton, 英格兰

纬度: 51-00N, 经度: 002-38W, 海拔: 23米

当前天气观测

该预报发布于50分钟前的08:50 UTC
风速8节,风向
温度 6°C
湿度 61%
气压 1036 hPa
能见度10公里或以上
少量云层高于3500英尺
散云层高于5000英尺

METAR: EGDY 300850Z 01008KT 9999 FEW035 SCT050 06/M01 Q1036 BLU

时间: 10:40 (09:40 UTC)

预报

该预报发布于2小时和57分钟前的06:43 UTC
预报有效从30日的 09点(UTC)到 30日的 18点(UTC)
风速10节,风向
能见度10公里或以上
少量云层高于3000英尺
多云层高于5000英尺
短暂存在
从 30日的 09点(UTC)到 30日的 13点(UTC)
多云层高于2200英尺
几率 30% :
短暂存在
从 30日的 13点(UTC)到 30日的 18点(UTC)
风速10节,风向,有时为20节阵风
几率 40% :
短暂存在
从 30日的 15点(UTC)到 30日的 17点(UTC)
少量云层高于1200英尺
多云层高于2000英尺
小阵雨

TAF: EGDY 300643Z 3009/3018 01010KT 9999 FEW030 BKN050 TEMPO 3009/3013 BKN022 PROB30 TEMPO 3013/3018 01010G20KT PROB40 TEMPO 3015/3017 -SHRA FEW012 BKN020

超过4000个机场的气象观测和天气预报(METAR&TAF报告)。

可查询的气象台以黄色和红色小点在地图上表示。

将鼠标移到小点上方,可查看气象台名称。

然后点击查看天气观测和预报。

如需切换地图:点击带黑十字的绿色按钮放大地图;点击带横线的绿色按钮缩小地图;或者点击绿色箭头查看邻近地区的地图。


METAR-TAF: